sensor_id;sensor_type;location;lat;lon;timestamp;P1;durP1;ratioP1;P2;durP2;ratioP2
21014;SDS011;19207;-23.482;-46.500;2023-04-24T00:02:19;10.75;;;5.18;;
21014;SDS011;19207;-23.482;-46.500;2023-04-24T00:05:06;12.02;;;5.90;;
21014;SDS011;19207;-23.482;-46.500;2023-04-24T00:07:53;10.43;;;5.00;;
21014;SDS011;19207;-23.482;-46.500;2023-04-24T00:10:41;9.48;;;5.35;;
21014;SDS011;19207;-23.482;-46.500;2023-04-24T00:13:27;10.75;;;5.47;;
21014;SDS011;19207;-23.482;-46.500;2023-04-24T00:16:13;16.58;;;6.07;;
21014;SDS011;19207;-23.482;-46.500;2023-04-24T00:19:00;13.57;;;5.93;;
21014;SDS011;19207;-23.482;-46.500;2023-04-24T00:21:47;13.05;;;5.95;;
21014;SDS011;19207;-23.482;-46.500;2023-04-24T00:24:37;18.40;;;5.78;;
21014;SDS011;19207;-23.482;-46.500;2023-04-24T00:27:24;12.07;;;5.00;;
21014;SDS011;19207;-23.482;-46.500;2023-04-24T00:30:11;13.00;;;5.30;;
21014;SDS011;19207;-23.482;-46.500;2023-04-24T00:32:58;15.35;;;5.45;;
21014;SDS011;19207;-23.482;-46.500;2023-04-24T00:35:45;14.07;;;4.80;;
21014;SDS011;19207;-23.482;-46.500;2023-04-24T00:38:32;7.32;;;4.45;;
21014;SDS011;19207;-23.482;-46.500;2023-04-24T00:41:19;11.25;;;4.60;;
21014;SDS011;19207;-23.482;-46.500;2023-04-24T00:44:05;8.43;;;4.75;;
21014;SDS011;19207;-23.482;-46.500;2023-04-24T00:46:52;10.80;;;4.95;;
21014;SDS011;19207;-23.482;-46.500;2023-04-24T00:49:41;15.90;;;5.28;;
21014;SDS011;19207;-23.482;-46.500;2023-04-24T00:52:28;15.35;;;5.05;;
21014;SDS011;19207;-23.482;-46.500;2023-04-24T00:55:16;10.95;;;4.75;;
21014;SDS011;19207;-23.482;-46.500;2023-04-24T00:58:03;12.75;;;4.93;;
21014;SDS011;19207;-23.482;-46.500;2023-04-24T01:00:50;12.60;;;5.03;;
21014;SDS011;19207;-23.482;-46.500;2023-04-24T01:03:37;19.70;;;6.30;;
21014;SDS011;19207;-23.482;-46.500;2023-04-24T01:06:27;12.88;;;5.50;;
21014;SDS011;19207;-23.482;-46.500;2023-04-24T01:09:14;12.25;;;6.00;;
21014;SDS011;19207;-23.482;-46.500;2023-04-24T01:12:01;16.08;;;6.03;;
21014;SDS011;19207;-23.482;-46.500;2023-04-24T01:14:48;14.70;;;5.87;;
21014;SDS011;19207;-23.482;-46.500;2023-04-24T01:17:35;18.33;;;6.72;;
21014;SDS011;19207;-23.482;-46.500;2023-04-24T01:20:22;18.10;;;7.90;;
21014;SDS011;19207;-23.482;-46.500;2023-04-24T01:23:11;23.45;;;8.00;;
21014;SDS011;19207;-23.482;-46.500;2023-04-24T01:25:57;16.37;;;6.82;;
21014;SDS011;19207;-23.482;-46.500;2023-04-24T01:28:44;24.85;;;6.43;;
21014;SDS011;19207;-23.482;-46.500;2023-04-24T01:31:30;21.37;;;5.82;;
21014;SDS011;19207;-23.482;-46.500;2023-04-24T01:34:18;20.35;;;7.03;;
21014;SDS011;19207;-23.482;-46.500;2023-04-24T01:37:06;20.60;;;6.32;;
21014;SDS011;19207;-23.482;-46.500;2023-04-24T01:39:53;30.12;;;9.55;;
21014;SDS011;19207;-23.482;-46.500;2023-04-24T01:42:40;33.70;;;12.02;;
21014;SDS011;19207;-23.482;-46.500;2023-04-24T01:45:27;57.05;;;20.25;;
21014;SDS011;19207;-23.482;-46.500;2023-04-24T01:48:14;46.80;;;16.60;;
21014;SDS011;19207;-23.482;-46.500;2023-04-24T01:51:01;44.60;;;15.18;;
21014;SDS011;19207;-23.482;-46.500;2023-04-24T01:53:48;31.85;;;12.13;;
21014;SDS011;19207;-23.482;-46.500;2023-04-24T01:56:35;40.12;;;11.10;;
21014;SDS011;19207;-23.482;-46.500;2023-04-24T01:59:22;35.60;;;10.65;;
21014;SDS011;19207;-23.482;-46.500;2023-04-24T02:02:09;27.95;;;9.88;;
21014;SDS011;19207;-23.482;-46.500;2023-04-24T02:04:56;23.38;;;9.45;;
21014;SDS011;19207;-23.482;-46.500;2023-04-24T02:07:44;26.35;;;10.60;;
21014;SDS011;19207;-23.482;-46.500;2023-04-24T02:10:31;35.67;;;12.10;;
21014;SDS011;19207;-23.482;-46.500;2023-04-24T02:13:17;36.33;;;12.25;;
21014;SDS011;19207;-23.482;-46.500;2023-04-24T02:16:04;41.67;;;13.43;;
21014;SDS011;19207;-23.482;-46.500;2023-04-24T02:18:51;30.35;;;12.07;;
21014;SDS011;19207;-23.482;-46.500;2023-04-24T02:21:38;31.87;;;12.88;;
21014;SDS011;19207;-23.482;-46.500;2023-04-24T02:24:25;44.90;;;13.65;;
21014;SDS011;19207;-23.482;-46.500;2023-04-24T02:27:11;32.92;;;12.82;;
21014;SDS011;19207;-23.482;-46.500;2023-04-24T02:29:58;25.05;;;12.73;;
21014;SDS011;19207;-23.482;-46.500;2023-04-24T02:32:45;27.60;;;11.98;;
21014;SDS011;19207;-23.482;-46.500;2023-04-24T02:35:32;25.10;;;12.30;;
21014;SDS011;19207;-23.482;-46.500;2023-04-24T02:38:20;26.73;;;12.35;;
21014;SDS011;19207;-23.482;-46.500;2023-04-24T02:41:06;32.42;;;13.35;;
21014;SDS011;19207;-23.482;-46.500;2023-04-24T02:43:53;32.15;;;16.02;;
21014;SDS011;19207;-23.482;-46.500;2023-04-24T02:46:40;40.50;;;18.30;;
21014;SDS011;19207;-23.482;-46.500;2023-04-24T02:49:27;43.75;;;19.77;;
21014;SDS011;19207;-23.482;-46.500;2023-04-24T02:52:13;42.28;;;20.70;;
21014;SDS011;19207;-23.482;-46.500;2023-04-24T02:55:00;43.78;;;22.25;;
21014;SDS011;19207;-23.482;-46.500;2023-04-24T02:57:47;41.75;;;22.13;;
21014;SDS011;19207;-23.482;-46.500;2023-04-24T03:00:33;44.17;;;22.00;;
21014;SDS011;19207;-23.482;-46.500;2023-04-24T03:03:20;32.25;;;16.60;;
21014;SDS011;19207;-23.482;-46.500;2023-04-24T03:06:06;43.28;;;18.67;;
21014;SDS011;19207;-23.482;-46.500;2023-04-24T03:08:53;30.83;;;13.50;;
21014;SDS011;19207;-23.482;-46.500;2023-04-24T03:11:40;33.80;;;14.95;;
21014;SDS011;19207;-23.482;-46.500;2023-04-24T03:14:27;34.70;;;15.15;;
21014;SDS011;19207;-23.482;-46.500;2023-04-24T03:17:16;40.10;;;14.27;;
21014;SDS011;19207;-23.482;-46.500;2023-04-24T03:20:03;29.73;;;13.62;;
21014;SDS011;19207;-23.482;-46.500;2023-04-24T03:22:53;44.42;;;14.25;;
21014;SDS011;19207;-23.482;-46.500;2023-04-24T03:25:40;25.52;;;11.18;;
21014;SDS011;19207;-23.482;-46.500;2023-04-24T03:28:28;38.88;;;13.10;;
21014;SDS011;19207;-23.482;-46.500;2023-04-24T03:31:15;30.92;;;13.13;;
21014;SDS011;19207;-23.482;-46.500;2023-04-24T03:34:02;24.77;;;10.35;;
21014;SDS011;19207;-23.482;-46.500;2023-04-24T03:36:49;25.37;;;9.82;;
21014;SDS011;19207;-23.482;-46.500;2023-04-24T03:39:37;24.75;;;9.32;;
21014;SDS011;19207;-23.482;-46.500;2023-04-24T03:42:24;27.62;;;9.20;;
21014;SDS011;19207;-23.482;-46.500;2023-04-24T03:45:10;20.08;;;9.10;;
21014;SDS011;19207;-23.482;-46.500;2023-04-24T03:47:57;35.28;;;9.43;;
21014;SDS011;19207;-23.482;-46.500;2023-04-24T03:50:44;28.40;;;9.85;;
21014;SDS011;19207;-23.482;-46.500;2023-04-24T03:53:31;26.70;;;9.73;;
21014;SDS011;19207;-23.482;-46.500;2023-04-24T03:56:17;19.12;;;9.02;;
21014;SDS011;19207;-23.482;-46.500;2023-04-24T03:59:04;22.05;;;8.57;;
21014;SDS011;19207;-23.482;-46.500;2023-04-24T04:01:51;24.63;;;10.55;;
21014;SDS011;19207;-23.482;-46.500;2023-04-24T04:04:39;29.12;;;10.70;;
21014;SDS011;19207;-23.482;-46.500;2023-04-24T04:07:25;29.83;;;10.85;;
21014;SDS011;19207;-23.482;-46.500;2023-04-24T04:10:13;21.35;;;10.88;;
21014;SDS011;19207;-23.482;-46.500;2023-04-24T04:12:59;25.35;;;10.85;;
21014;SDS011;19207;-23.482;-46.500;2023-04-24T04:15:46;23.38;;;11.55;;
21014;SDS011;19207;-23.482;-46.500;2023-04-24T04:18:33;22.95;;;11.38;;
21014;SDS011;19207;-23.482;-46.500;2023-04-24T04:21:20;26.52;;;12.93;;
21014;SDS011;19207;-23.482;-46.500;2023-04-24T04:24:07;26.05;;;12.60;;
21014;SDS011;19207;-23.482;-46.500;2023-04-24T04:26:55;21.17;;;12.10;;
21014;SDS011;19207;-23.482;-46.500;2023-04-24T04:29:43;31.50;;;13.18;;
21014;SDS011;19207;-23.482;-46.500;2023-04-24T04:32:38;30.85;;;13.43;;
21014;SDS011;19207;-23.482;-46.500;2023-04-24T04:35:25;30.48;;;13.27;;
21014;SDS011;19207;-23.482;-46.500;2023-04-24T04:38:12;22.75;;;13.02;;
21014;SDS011;19207;-23.482;-46.500;2023-04-24T04:41:01;31.75;;;14.32;;
21014;SDS011;19207;-23.482;-46.500;2023-04-24T04:43:48;32.53;;;15.43;;
21014;SDS011;19207;-23.482;-46.500;2023-04-24T04:46:35;35.47;;;16.42;;
21014;SDS011;19207;-23.482;-46.500;2023-04-24T04:49:23;44.13;;;18.30;;
21014;SDS011;19207;-23.482;-46.500;2023-04-24T04:52:10;36.47;;;18.67;;
21014;SDS011;19207;-23.482;-46.500;2023-04-24T04:54:58;39.70;;;18.98;;
21014;SDS011;19207;-23.482;-46.500;2023-04-24T04:57:45;30.42;;;17.23;;
21014;SDS011;19207;-23.482;-46.500;2023-04-24T05:00:32;32.95;;;17.20;;
21014;SDS011;19207;-23.482;-46.500;2023-04-24T05:03:22;34.70;;;18.75;;
21014;SDS011;19207;-23.482;-46.500;2023-04-24T05:06:09;39.10;;;16.90;;
21014;SDS011;19207;-23.482;-46.500;2023-04-24T05:08:56;27.90;;;14.77;;
21014;SDS011;19207;-23.482;-46.500;2023-04-24T05:11:43;40.58;;;16.45;;
21014;SDS011;19207;-23.482;-46.500;2023-04-24T05:14:30;26.90;;;15.10;;
21014;SDS011;19207;-23.482;-46.500;2023-04-24T05:17:17;34.40;;;15.05;;
21014;SDS011;19207;-23.482;-46.500;2023-04-24T05:20:03;34.58;;;15.30;;
21014;SDS011;19207;-23.482;-46.500;2023-04-24T05:22:50;34.85;;;15.02;;
21014;SDS011;19207;-23.482;-46.500;2023-04-24T05:25:37;34.80;;;15.75;;
21014;SDS011;19207;-23.482;-46.500;2023-04-24T05:28:25;35.20;;;14.75;;
21014;SDS011;19207;-23.482;-46.500;2023-04-24T05:31:15;28.60;;;14.05;;
21014;SDS011;19207;-23.482;-46.500;2023-04-24T05:34:03;30.90;;;13.05;;
21014;SDS011;19207;-23.482;-46.500;2023-04-24T05:36:50;34.47;;;12.82;;
21014;SDS011;19207;-23.482;-46.500;2023-04-24T05:39:38;29.73;;;12.70;;
21014;SDS011;19207;-23.482;-46.500;2023-04-24T05:42:27;35.92;;;12.63;;
21014;SDS011;19207;-23.482;-46.500;2023-04-24T05:45:13;23.65;;;12.25;;
21014;SDS011;19207;-23.482;-46.500;2023-04-24T05:48:02;31.58;;;13.95;;
21014;SDS011;19207;-23.482;-46.500;2023-04-24T05:50:48;32.35;;;12.30;;
21014;SDS011;19207;-23.482;-46.500;2023-04-24T05:53:36;25.17;;;12.85;;
21014;SDS011;19207;-23.482;-46.500;2023-04-24T05:56:23;23.15;;;12.18;;
21014;SDS011;19207;-23.482;-46.500;2023-04-24T05:59:10;28.38;;;12.57;;
21014;SDS011;19207;-23.482;-46.500;2023-04-24T06:01:57;30.25;;;14.45;;
21014;SDS011;19207;-23.482;-46.500;2023-04-24T06:04:44;30.10;;;14.48;;
21014;SDS011;19207;-23.482;-46.500;2023-04-24T06:07:31;32.58;;;14.63;;
21014;SDS011;19207;-23.482;-46.500;2023-04-24T06:10:18;30.23;;;13.93;;
21014;SDS011;19207;-23.482;-46.500;2023-04-24T06:13:04;38.67;;;14.18;;
21014;SDS011;19207;-23.482;-46.500;2023-04-24T06:15:52;34.25;;;15.73;;
21014;SDS011;19207;-23.482;-46.500;2023-04-24T06:18:39;31.62;;;15.25;;
21014;SDS011;19207;-23.482;-46.500;2023-04-24T06:21:26;30.88;;;13.80;;
21014;SDS011;19207;-23.482;-46.500;2023-04-24T06:24:14;28.05;;;13.75;;
21014;SDS011;19207;-23.482;-46.500;2023-04-24T06:27:04;29.12;;;13.15;;
21014;SDS011;19207;-23.482;-46.500;2023-04-24T06:29:50;27.33;;;11.65;;
21014;SDS011;19207;-23.482;-46.500;2023-04-24T06:32:39;32.80;;;11.95;;
21014;SDS011;19207;-23.482;-46.500;2023-04-24T06:35:27;25.50;;;12.43;;
21014;SDS011;19207;-23.482;-46.500;2023-04-24T06:38:14;31.27;;;13.23;;
21014;SDS011;19207;-23.482;-46.500;2023-04-24T06:41:01;24.48;;;11.55;;
21014;SDS011;19207;-23.482;-46.500;2023-04-24T06:43:50;25.95;;;11.63;;
21014;SDS011;19207;-23.482;-46.500;2023-04-24T06:46:36;28.87;;;12.13;;
21014;SDS011;19207;-23.482;-46.500;2023-04-24T06:49:23;22.87;;;10.85;;
21014;SDS011;19207;-23.482;-46.500;2023-04-24T06:52:11;41.83;;;11.68;;
21014;SDS011;19207;-23.482;-46.500;2023-04-24T06:55:04;34.33;;;12.02;;
21014;SDS011;19207;-23.482;-46.500;2023-04-24T06:57:51;36.30;;;12.15;;
21014;SDS011;19207;-23.482;-46.500;2023-04-24T07:00:38;50.53;;;15.65;;
21014;SDS011;19207;-23.482;-46.500;2023-04-24T07:03:25;54.15;;;24.42;;
21014;SDS011;19207;-23.482;-46.500;2023-04-24T07:06:12;57.92;;;20.85;;
21014;SDS011;19207;-23.482;-46.500;2023-04-24T07:08:59;57.35;;;16.98;;
21014;SDS011;19207;-23.482;-46.500;2023-04-24T07:11:46;35.10;;;15.60;;
21014;SDS011;19207;-23.482;-46.500;2023-04-24T07:14:33;54.67;;;20.42;;
21014;SDS011;19207;-23.482;-46.500;2023-04-24T07:17:20;92.05;;;36.97;;
21014;SDS011;19207;-23.482;-46.500;2023-04-24T07:20:07;73.28;;;28.27;;
21014;SDS011;19207;-23.482;-46.500;2023-04-24T07:22:55;60.92;;;19.17;;
21014;SDS011;19207;-23.482;-46.500;2023-04-24T07:25:42;44.92;;;14.60;;
21014;SDS011;19207;-23.482;-46.500;2023-04-24T07:28:29;44.63;;;14.02;;
21014;SDS011;19207;-23.482;-46.500;2023-04-24T07:31:16;34.70;;;11.45;;
21014;SDS011;19207;-23.482;-46.500;2023-04-24T07:34:03;32.58;;;12.10;;
21014;SDS011;19207;-23.482;-46.500;2023-04-24T07:36:50;44.42;;;14.18;;
21014;SDS011;19207;-23.482;-46.500;2023-04-24T07:39:37;46.08;;;16.50;;
21014;SDS011;19207;-23.482;-46.500;2023-04-24T07:42:24;42.55;;;18.45;;
21014;SDS011;19207;-23.482;-46.500;2023-04-24T07:45:12;44.30;;;13.98;;
21014;SDS011;19207;-23.482;-46.500;2023-04-24T07:47:59;42.08;;;13.60;;
21014;SDS011;19207;-23.482;-46.500;2023-04-24T07:50:46;29.67;;;13.05;;
21014;SDS011;19207;-23.482;-46.500;2023-04-24T07:53:33;46.45;;;13.05;;
21014;SDS011;19207;-23.482;-46.500;2023-04-24T07:56:20;43.87;;;12.73;;
21014;SDS011;19207;-23.482;-46.500;2023-04-24T07:59:07;41.40;;;14.25;;
21014;SDS011;19207;-23.482;-46.500;2023-04-24T08:01:54;31.23;;;12.57;;
21014;SDS011;19207;-23.482;-46.500;2023-04-24T08:04:41;36.53;;;13.52;;
21014;SDS011;19207;-23.482;-46.500;2023-04-24T08:07:28;36.38;;;12.50;;
21014;SDS011;19207;-23.482;-46.500;2023-04-24T08:10:15;49.78;;;11.38;;
21014;SDS011;19207;-23.482;-46.500;2023-04-24T08:13:02;47.38;;;10.45;;
21014;SDS011;19207;-23.482;-46.500;2023-04-24T08:15:49;43.38;;;9.70;;
21014;SDS011;19207;-23.482;-46.500;2023-04-24T08:18:36;44.95;;;9.40;;
21014;SDS011;19207;-23.482;-46.500;2023-04-24T08:21:22;37.33;;;8.43;;
21014;SDS011;19207;-23.482;-46.500;2023-04-24T08:24:11;30.73;;;8.70;;
21014;SDS011;19207;-23.482;-46.500;2023-04-24T08:26:58;36.03;;;9.48;;
21014;SDS011;19207;-23.482;-46.500;2023-04-24T08:29:46;28.38;;;7.97;;
21014;SDS011;19207;-23.482;-46.500;2023-04-24T08:32:33;24.70;;;7.32;;
21014;SDS011;19207;-23.482;-46.500;2023-04-24T08:35:20;25.15;;;7.50;;
21014;SDS011;19207;-23.482;-46.500;2023-04-24T08:38:08;17.42;;;6.68;;
21014;SDS011;19207;-23.482;-46.500;2023-04-24T08:40:56;17.55;;;5.90;;
21014;SDS011;19207;-23.482;-46.500;2023-04-24T08:43:43;23.23;;;7.85;;
21014;SDS011;19207;-23.482;-46.500;2023-04-24T08:46:31;27.15;;;8.35;;
21014;SDS011;19207;-23.482;-46.500;2023-04-24T08:49:17;19.58;;;7.93;;
21014;SDS011;19207;-23.482;-46.500;2023-04-24T08:52:04;15.52;;;8.05;;
21014;SDS011;19207;-23.482;-46.500;2023-04-24T08:54:52;14.68;;;7.57;;
21014;SDS011;19207;-23.482;-46.500;2023-04-24T08:57:38;17.60;;;8.02;;
21014;SDS011;19207;-23.482;-46.500;2023-04-24T09:00:25;21.40;;;7.30;;
21014;SDS011;19207;-23.482;-46.500;2023-04-24T09:03:16;21.30;;;7.40;;
21014;SDS011;19207;-23.482;-46.500;2023-04-24T09:06:03;20.40;;;7.62;;
21014;SDS011;19207;-23.482;-46.500;2023-04-24T09:08:50;24.50;;;8.63;;
21014;SDS011;19207;-23.482;-46.500;2023-04-24T09:11:38;23.73;;;8.23;;
21014;SDS011;19207;-23.482;-46.500;2023-04-24T09:14:25;18.23;;;8.25;;
21014;SDS011;19207;-23.482;-46.500;2023-04-24T09:17:13;16.87;;;7.75;;
21014;SDS011;19207;-23.482;-46.500;2023-04-24T09:19:59;23.67;;;8.07;;
21014;SDS011;19207;-23.482;-46.500;2023-04-24T09:22:47;21.58;;;7.70;;
21014;SDS011;19207;-23.482;-46.500;2023-04-24T09:25:34;23.60;;;7.60;;
21014;SDS011;19207;-23.482;-46.500;2023-04-24T09:28:25;18.17;;;7.68;;
21014;SDS011;19207;-23.482;-46.500;2023-04-24T09:31:13;20.55;;;8.82;;
21014;SDS011;19207;-23.482;-46.500;2023-04-24T09:34:03;31.40;;;8.80;;
21014;SDS011;19207;-23.482;-46.500;2023-04-24T09:36:53;27.60;;;9.70;;
21014;SDS011;19207;-23.482;-46.500;2023-04-24T09:39:41;29.42;;;11.63;;
21014;SDS011;19207;-23.482;-46.500;2023-04-24T09:42:28;28.15;;;11.20;;
21014;SDS011;19207;-23.482;-46.500;2023-04-24T09:45:17;21.52;;;9.05;;
21014;SDS011;19207;-23.482;-46.500;2023-04-24T09:48:05;23.75;;;7.43;;
21014;SDS011;19207;-23.482;-46.500;2023-04-24T09:50:53;56.15;;;20.60;;
21014;SDS011;19207;-23.482;-46.500;2023-04-24T09:53:40;55.65;;;28.92;;
21014;SDS011;19207;-23.482;-46.500;2023-04-24T09:56:34;58.83;;;24.98;;
21014;SDS011;19207;-23.482;-46.500;2023-04-24T09:59:22;49.75;;;22.65;;
21014;SDS011;19207;-23.482;-46.500;2023-04-24T10:02:18;55.53;;;22.20;;
21014;SDS011;19207;-23.482;-46.500;2023-04-24T10:05:05;66.50;;;25.30;;
21014;SDS011;19207;-23.482;-46.500;2023-04-24T10:07:55;65.90;;;19.80;;
21014;SDS011;19207;-23.482;-46.500;2023-04-24T10:10:43;39.05;;;13.25;;
21014;SDS011;19207;-23.482;-46.500;2023-04-24T10:13:29;47.88;;;16.87;;
21014;SDS011;19207;-23.482;-46.500;2023-04-24T10:16:16;57.20;;;18.95;;
21014;SDS011;19207;-23.482;-46.500;2023-04-24T10:19:04;55.92;;;19.60;;
21014;SDS011;19207;-23.482;-46.500;2023-04-24T10:21:50;52.10;;;18.33;;
21014;SDS011;19207;-23.482;-46.500;2023-04-24T10:24:37;41.53;;;18.33;;
21014;SDS011;19207;-23.482;-46.500;2023-04-24T10:27:24;37.08;;;15.02;;
21014;SDS011;19207;-23.482;-46.500;2023-04-24T10:30:12;35.60;;;16.23;;
21014;SDS011;19207;-23.482;-46.500;2023-04-24T10:32:59;36.13;;;11.60;;
21014;SDS011;19207;-23.482;-46.500;2023-04-24T10:35:47;30.42;;;12.55;;
21014;SDS011;19207;-23.482;-46.500;2023-04-24T10:38:34;30.02;;;12.60;;
21014;SDS011;19207;-23.482;-46.500;2023-04-24T10:41:22;26.65;;;10.98;;
21014;SDS011;19207;-23.482;-46.500;2023-04-24T10:44:13;24.77;;;8.48;;
21014;SDS011;19207;-23.482;-46.500;2023-04-24T10:47:00;18.67;;;7.25;;
21014;SDS011;19207;-23.482;-46.500;2023-04-24T10:49:50;21.90;;;7.55;;
21014;SDS011;19207;-23.482;-46.500;2023-04-24T10:52:44;18.20;;;6.72;;
21014;SDS011;19207;-23.482;-46.500;2023-04-24T10:58:50;19.65;;;6.40;;
21014;SDS011;19207;-23.482;-46.500;2023-04-24T11:01:37;13.38;;;6.47;;
21014;SDS011;19207;-23.482;-46.500;2023-04-24T11:04:30;13.68;;;5.97;;
21014;SDS011;19207;-23.482;-46.500;2023-04-24T11:07:19;18.60;;;5.90;;
21014;SDS011;19207;-23.482;-46.500;2023-04-24T11:10:07;11.63;;;5.57;;
21014;SDS011;19207;-23.482;-46.500;2023-04-24T11:12:54;22.27;;;6.40;;
21014;SDS011;19207;-23.482;-46.500;2023-04-24T11:15:43;13.85;;;5.85;;
21014;SDS011;19207;-23.482;-46.500;2023-04-24T11:18:36;18.67;;;6.82;;
21014;SDS011;19207;-23.482;-46.500;2023-04-24T11:21:24;11.48;;;5.65;;
21014;SDS011;19207;-23.482;-46.500;2023-04-24T11:24:28;19.67;;;6.75;;
21014;SDS011;19207;-23.482;-46.500;2023-04-24T11:27:17;20.02;;;7.12;;
21014;SDS011;19207;-23.482;-46.500;2023-04-24T11:30:07;25.62;;;6.40;;
21014;SDS011;19207;-23.482;-46.500;2023-04-24T11:32:54;24.30;;;9.18;;
21014;SDS011;19207;-23.482;-46.500;2023-04-24T11:35:45;11.65;;;6.28;;
21014;SDS011;19207;-23.482;-46.500;2023-04-24T11:38:31;16.58;;;5.70;;
21014;SDS011;19207;-23.482;-46.500;2023-04-24T11:41:18;14.65;;;5.80;;
21014;SDS011;19207;-23.482;-46.500;2023-04-24T11:44:06;17.08;;;5.50;;
21014;SDS011;19207;-23.482;-46.500;2023-04-24T11:46:52;11.60;;;4.95;;
21014;SDS011;19207;-23.482;-46.500;2023-04-24T11:49:41;15.00;;;5.50;;
21014;SDS011;19207;-23.482;-46.500;2023-04-24T11:52:29;13.38;;;5.55;;
21014;SDS011;19207;-23.482;-46.500;2023-04-24T11:58:05;14.48;;;5.37;;
21014;SDS011;19207;-23.482;-46.500;2023-04-24T12:00:57;19.35;;;5.95;;
21014;SDS011;19207;-23.482;-46.500;2023-04-24T12:03:49;12.43;;;5.90;;
21014;SDS011;19207;-23.482;-46.500;2023-04-24T12:06:36;11.93;;;5.90;;
21014;SDS011;19207;-23.482;-46.500;2023-04-24T12:09:23;17.70;;;6.40;;
21014;SDS011;19207;-23.482;-46.500;2023-04-24T12:12:10;28.38;;;7.57;;
21014;SDS011;19207;-23.482;-46.500;2023-04-24T12:14:58;32.72;;;13.93;;
21014;SDS011;19207;-23.482;-46.500;2023-04-24T12:17:45;16.48;;;6.32;;
21014;SDS011;19207;-23.482;-46.500;2023-04-24T12:20:32;16.12;;;5.32;;
21014;SDS011;19207;-23.482;-46.500;2023-04-24T12:23:35;18.50;;;5.55;;
21014;SDS011;19207;-23.482;-46.500;2023-04-24T12:26:22;18.60;;;5.00;;
21014;SDS011;19207;-23.482;-46.500;2023-04-24T12:29:09;15.60;;;5.62;;
21014;SDS011;19207;-23.482;-46.500;2023-04-24T12:31:57;13.48;;;5.85;;
21014;SDS011;19207;-23.482;-46.500;2023-04-24T12:34:44;21.33;;;6.30;;
21014;SDS011;19207;-23.482;-46.500;2023-04-24T12:37:32;19.55;;;5.28;;
21014;SDS011;19207;-23.482;-46.500;2023-04-24T12:40:19;13.23;;;6.12;;
21014;SDS011;19207;-23.482;-46.500;2023-04-24T12:43:16;18.67;;;5.57;;
21014;SDS011;19207;-23.482;-46.500;2023-04-24T12:46:04;18.60;;;7.03;;
21014;SDS011;19207;-23.482;-46.500;2023-04-24T12:48:51;12.63;;;5.90;;
21014;SDS011;19207;-23.482;-46.500;2023-04-24T12:51:38;13.20;;;5.95;;
21014;SDS011;19207;-23.482;-46.500;2023-04-24T12:54:31;19.50;;;5.97;;
21014;SDS011;19207;-23.482;-46.500;2023-04-24T12:57:18;15.60;;;6.68;;
21014;SDS011;19207;-23.482;-46.500;2023-04-24T13:00:06;18.35;;;7.25;;
21014;SDS011;19207;-23.482;-46.500;2023-04-24T13:02:53;18.50;;;5.80;;
21014;SDS011;19207;-23.482;-46.500;2023-04-24T13:05:40;11.73;;;6.05;;
21014;SDS011;19207;-23.482;-46.500;2023-04-24T13:08:27;14.55;;;6.05;;
21014;SDS011;19207;-23.482;-46.500;2023-04-24T13:11:14;20.23;;;5.80;;
21014;SDS011;19207;-23.482;-46.500;2023-04-24T13:14:00;13.40;;;5.50;;
21014;SDS011;19207;-23.482;-46.500;2023-04-24T13:16:46;12.45;;;5.95;;
21014;SDS011;19207;-23.482;-46.500;2023-04-24T13:19:37;21.73;;;6.45;;
21014;SDS011;19207;-23.482;-46.500;2023-04-24T13:22:24;13.68;;;5.30;;
21014;SDS011;19207;-23.482;-46.500;2023-04-24T13:25:11;19.52;;;6.07;;
21014;SDS011;19207;-23.482;-46.500;2023-04-24T13:27:57;14.60;;;6.05;;
21014;SDS011;19207;-23.482;-46.500;2023-04-24T13:30:44;18.12;;;5.85;;
21014;SDS011;19207;-23.482;-46.500;2023-04-24T13:33:31;14.23;;;5.35;;
21014;SDS011;19207;-23.482;-46.500;2023-04-24T13:36:17;14.82;;;5.53;;
21014;SDS011;19207;-23.482;-46.500;2023-04-24T13:39:04;32.05;;;6.25;;
21014;SDS011;19207;-23.482;-46.500;2023-04-24T13:41:51;23.50;;;6.78;;
21014;SDS011;19207;-23.482;-46.500;2023-04-24T13:44:38;20.17;;;6.87;;
21014;SDS011;19207;-23.482;-46.500;2023-04-24T13:47:25;16.52;;;6.05;;
21014;SDS011;19207;-23.482;-46.500;2023-04-24T13:50:11;19.80;;;6.20;;
21014;SDS011;19207;-23.482;-46.500;2023-04-24T13:52:58;15.13;;;6.28;;
21014;SDS011;19207;-23.482;-46.500;2023-04-24T13:55:47;15.82;;;5.70;;
21014;SDS011;19207;-23.482;-46.500;2023-04-24T13:58:33;15.13;;;5.62;;
21014;SDS011;19207;-23.482;-46.500;2023-04-24T14:01:22;13.57;;;5.30;;
21014;SDS011;19207;-23.482;-46.500;2023-04-24T14:04:09;12.05;;;6.20;;
21014;SDS011;19207;-23.482;-46.500;2023-04-24T14:06:56;20.52;;;5.70;;
21014;SDS011;19207;-23.482;-46.500;2023-04-24T14:09:43;9.35;;;5.30;;
21014;SDS011;19207;-23.482;-46.500;2023-04-24T14:12:30;13.82;;;5.53;;
21014;SDS011;19207;-23.482;-46.500;2023-04-24T14:15:16;13.10;;;5.70;;
21014;SDS011;19207;-23.482;-46.500;2023-04-24T14:18:03;15.98;;;5.68;;
21014;SDS011;19207;-23.482;-46.500;2023-04-24T14:20:49;10.68;;;5.10;;
21014;SDS011;19207;-23.482;-46.500;2023-04-24T14:23:36;12.05;;;5.15;;
21014;SDS011;19207;-23.482;-46.500;2023-04-24T14:26:23;10.45;;;5.47;;
21014;SDS011;19207;-23.482;-46.500;2023-04-24T14:29:10;7.20;;;5.00;;
21014;SDS011;19207;-23.482;-46.500;2023-04-24T14:31:57;11.85;;;4.97;;
21014;SDS011;19207;-23.482;-46.500;2023-04-24T14:34:44;8.45;;;4.55;;
21014;SDS011;19207;-23.482;-46.500;2023-04-24T14:37:30;13.27;;;4.95;;
21014;SDS011;19207;-23.482;-46.500;2023-04-24T14:40:17;8.85;;;5.15;;
21014;SDS011;19207;-23.482;-46.500;2023-04-24T14:43:04;8.27;;;5.00;;
21014;SDS011;19207;-23.482;-46.500;2023-04-24T14:45:52;9.05;;;5.57;;
21014;SDS011;19207;-23.482;-46.500;2023-04-24T14:48:39;9.73;;;5.30;;
21014;SDS011;19207;-23.482;-46.500;2023-04-24T14:51:26;10.73;;;5.30;;
21014;SDS011;19207;-23.482;-46.500;2023-04-24T14:54:12;11.25;;;4.85;;
21014;SDS011;19207;-23.482;-46.500;2023-04-24T14:57:00;7.37;;;4.65;;
21014;SDS011;19207;-23.482;-46.500;2023-04-24T14:59:47;12.70;;;5.00;;
21014;SDS011;19207;-23.482;-46.500;2023-04-24T15:02:34;15.23;;;5.68;;
21014;SDS011;19207;-23.482;-46.500;2023-04-24T15:05:22;9.20;;;5.22;;
21014;SDS011;19207;-23.482;-46.500;2023-04-24T15:08:09;10.95;;;5.87;;
21014;SDS011;19207;-23.482;-46.500;2023-04-24T15:10:56;14.20;;;5.07;;
21014;SDS011;19207;-23.482;-46.500;2023-04-24T15:13:43;5.87;;;4.80;;
21014;SDS011;19207;-23.482;-46.500;2023-04-24T15:16:33;7.60;;;4.68;;
21014;SDS011;19207;-23.482;-46.500;2023-04-24T15:19:20;10.75;;;4.53;;
21014;SDS011;19207;-23.482;-46.500;2023-04-24T15:22:07;12.10;;;5.18;;
21014;SDS011;19207;-23.482;-46.500;2023-04-24T15:24:53;6.05;;;4.30;;
21014;SDS011;19207;-23.482;-46.500;2023-04-24T15:27:42;10.75;;;5.20;;
21014;SDS011;19207;-23.482;-46.500;2023-04-24T15:30:29;7.47;;;4.90;;
21014;SDS011;19207;-23.482;-46.500;2023-04-24T15:33:15;14.00;;;5.12;;
21014;SDS011;19207;-23.482;-46.500;2023-04-24T15:36:02;14.57;;;4.60;;
21014;SDS011;19207;-23.482;-46.500;2023-04-24T15:38:49;12.70;;;6.60;;
21014;SDS011;19207;-23.482;-46.500;2023-04-24T15:41:35;11.27;;;5.20;;
21014;SDS011;19207;-23.482;-46.500;2023-04-24T15:44:22;8.35;;;5.12;;
21014;SDS011;19207;-23.482;-46.500;2023-04-24T15:47:09;12.10;;;5.68;;
21014;SDS011;19207;-23.482;-46.500;2023-04-24T15:49:57;9.73;;;5.10;;
21014;SDS011;19207;-23.482;-46.500;2023-04-24T15:52:44;8.75;;;5.45;;